createdAt,value
2023-05-16T00:00:35.762Z,78.99
2023-05-16T00:03:05.890Z,80.00
2023-05-16T00:05:36.322Z,80.36
2023-05-16T00:08:06.355Z,80.94
2023-05-16T00:10:39.004Z,81.54
2023-05-16T00:13:10.038Z,81.27
2023-05-16T00:15:40.225Z,81.28
2023-05-16T00:18:10.155Z,82.05
2023-05-16T00:20:40.393Z,82.09
2023-05-16T00:23:10.236Z,81.85
2023-05-16T00:25:42.592Z,81.80
2023-05-16T00:28:12.372Z,81.61
2023-05-16T00:30:42.116Z,81.45
2023-05-16T00:33:11.974Z,81.95
2023-05-16T00:35:41.768Z,80.94
2023-05-16T00:38:11.566Z,80.67
2023-05-16T00:40:43.915Z,80.23
2023-05-16T00:43:13.712Z,80.07
2023-05-16T00:45:43.514Z,80.58
2023-05-16T00:48:15.421Z,80.84
2023-05-16T00:50:45.596Z,81.05
2023-05-16T00:53:15.833Z,81.06
2023-05-16T00:55:48.641Z,81.05
2023-05-16T00:58:19.249Z,81.94
2023-05-16T01:00:50.200Z,82.70
2023-05-16T01:03:21.607Z,81.63
2023-05-16T01:05:51.995Z,80.84
2023-05-16T01:08:21.840Z,81.36
2023-05-16T01:11:05.589Z,80.82
2023-05-16T01:13:43.918Z,81.36
2023-05-16T01:16:25.467Z,81.09
2023-05-16T01:19:08.334Z,81.18
2023-05-16T01:21:48.560Z,82.12
2023-05-16T01:24:35.936Z,82.20
2023-05-16T01:27:09.208Z,82.80
2023-05-16T01:29:39.027Z,82.81
2023-05-16T01:32:09.685Z,83.51
2023-05-16T01:34:39.547Z,83.24
2023-05-16T01:37:17.427Z,82.56
2023-05-16T01:39:52.154Z,81.88
2023-05-16T01:42:29.946Z,82.39
2023-05-16T01:45:05.757Z,81.71
2023-05-16T01:47:39.127Z,81.57
2023-05-16T01:50:17.465Z,81.06
2023-05-16T01:52:52.902Z,80.77
2023-05-16T01:55:35.117Z,79.80
2023-05-16T01:58:10.425Z,80.18
2023-05-16T02:00:40.233Z,80.39
2023-05-16T02:03:10.677Z,79.71
2023-05-16T02:05:41.290Z,79.76
2023-05-16T02:08:13.909Z,80.05
2023-05-16T02:10:44.818Z,79.58
2023-05-16T02:13:17.248Z,79.88
2023-05-16T02:15:47.115Z,79.97
2023-05-16T02:18:17.450Z,80.93
2023-05-16T02:20:47.800Z,81.29
2023-05-16T02:23:18.993Z,81.41
2023-05-16T02:25:48.757Z,81.34
2023-05-16T02:28:21.086Z,80.82
2023-05-16T02:30:59.308Z,80.43
2023-05-16T02:33:29.745Z,80.64
2023-05-16T02:35:59.513Z,80.74
2023-05-16T02:38:29.399Z,81.30
2023-05-16T02:40:59.184Z,81.52
2023-05-16T02:43:31.547Z,82.11
2023-05-16T02:46:01.655Z,83.41
2023-05-16T02:48:31.633Z,83.91
2023-05-16T02:51:01.890Z,85.28
2023-05-16T02:53:31.680Z,85.49
2023-05-16T02:56:01.544Z,87.02
2023-05-16T02:58:34.243Z,88.56
2023-05-16T03:01:03.970Z,88.61
2023-05-16T03:03:36.447Z,90.05
2023-05-16T03:06:06.622Z,90.56
2023-05-16T03:08:36.989Z,90.54
2023-05-16T03:11:06.880Z,90.13
2023-05-16T03:13:39.299Z,89.56
2023-05-16T03:16:09.422Z,89.38
2023-05-16T03:18:39.278Z,88.29
2023-05-16T03:21:09.338Z,87.48
2023-05-16T03:23:39.126Z,86.63
2023-05-16T03:26:08.947Z,85.35
2023-05-16T03:28:41.317Z,85.12
2023-05-16T03:31:11.174Z,84.89
2023-05-16T03:33:40.948Z,84.13
2023-05-16T03:36:11.491Z,83.75
2023-05-16T03:38:41.333Z,82.80
2023-05-16T03:41:11.157Z,82.57
2023-05-16T03:43:43.549Z,82.08
2023-05-16T03:46:13.391Z,81.66
2023-05-16T03:48:43.285Z,82.45
2023-05-16T03:51:13.113Z,82.52
2023-05-16T03:53:42.936Z,82.04
2023-05-16T03:56:12.749Z,81.66
2023-05-16T03:58:45.144Z,81.61
2023-05-16T04:01:14.959Z,81.05
2023-05-16T04:03:44.701Z,80.38
2023-05-16T04:06:14.599Z,81.15
2023-05-16T04:08:45.170Z,80.73
2023-05-16T04:11:14.953Z,80.54
2023-05-16T04:13:47.355Z,80.57
2023-05-16T04:16:17.263Z,80.21
2023-05-16T04:18:47.084Z,80.29
2023-05-16T04:21:16.841Z,80.58
2023-05-16T04:23:46.605Z,80.85
2023-05-16T04:26:16.952Z,80.67
2023-05-16T04:28:49.339Z,80.86
2023-05-16T04:31:19.390Z,80.32
2023-05-16T04:33:49.182Z,80.72
2023-05-16T04:36:18.963Z,80.18
2023-05-16T04:38:49.291Z,80.84
2023-05-16T04:41:19.045Z,80.52
2023-05-16T04:43:52.176Z,79.34
2023-05-16T04:46:22.180Z,79.26
2023-05-16T04:48:52.363Z,78.48
2023-05-16T04:51:22.104Z,78.45
2023-05-16T04:53:52.169Z,78.49
2023-05-16T04:56:22.610Z,77.85
2023-05-16T04:58:54.926Z,77.14
2023-05-16T05:01:24.714Z,76.78
2023-05-16T05:03:54.454Z,76.68
2023-05-16T05:06:24.308Z,76.46
2023-05-16T05:08:54.088Z,76.46
2023-05-16T05:11:23.903Z,76.08
2023-05-16T05:13:56.214Z,75.13
2023-05-16T05:16:26.017Z,75.55
2023-05-16T05:18:56.006Z,75.83
2023-05-16T05:21:25.930Z,75.37
2023-05-16T05:23:55.861Z,75.52
2023-05-16T05:26:26.312Z,75.83
2023-05-16T05:29:05.410Z,75.63
2023-05-16T05:31:36.299Z,75.22
2023-05-16T05:34:06.241Z,74.30
2023-05-16T05:36:36.101Z,74.10
2023-05-16T05:39:05.954Z,72.77
2023-05-16T05:41:35.715Z,72.68
2023-05-16T05:44:08.338Z,73.03
2023-05-16T05:46:38.553Z,73.57
2023-05-16T05:49:08.572Z,72.99
2023-05-16T05:51:38.561Z,72.07
2023-05-16T05:54:08.388Z,71.53
2023-05-16T05:56:38.211Z,70.86
2023-05-16T05:59:10.556Z,71.16
2023-05-16T06:01:40.413Z,70.36
2023-05-16T06:04:10.300Z,70.98
2023-05-16T06:06:40.548Z,71.21
2023-05-16T06:09:10.675Z,70.50
2023-05-16T06:11:40.429Z,70.67
2023-05-16T06:14:12.830Z,70.65
2023-05-16T06:16:42.723Z,71.15
2023-05-16T06:19:16.584Z,70.60
2023-05-16T06:21:47.912Z,70.68
2023-05-16T06:24:18.984Z,71.32
2023-05-16T06:26:50.343Z,70.50
2023-05-16T06:29:22.726Z,70.09
2023-05-16T06:31:52.628Z,68.89
2023-05-16T06:34:27.662Z,67.21
2023-05-16T06:36:57.621Z,66.93
2023-05-16T06:39:27.388Z,66.65
2023-05-16T06:41:57.328Z,67.16
2023-05-16T06:44:29.903Z,65.81
2023-05-16T06:46:59.756Z,66.42
2023-05-16T06:49:29.667Z,67.09
2023-05-16T06:51:59.437Z,65.60
2023-05-16T06:54:29.262Z,66.82
2023-05-16T06:56:59.048Z,66.82
2023-05-16T06:59:31.474Z,65.70
2023-05-16T07:02:01.425Z,66.33
2023-05-16T07:04:31.597Z,66.50
2023-05-16T07:07:01.645Z,66.22
2023-05-16T07:09:31.540Z,65.52
2023-05-16T07:12:01.461Z,66.47
2023-05-16T07:14:34.072Z,65.25
2023-05-16T07:17:04.064Z,65.34
2023-05-16T07:19:33.972Z,66.69
2023-05-16T07:22:03.831Z,65.98
2023-05-16T07:24:33.678Z,64.85
2023-05-16T07:27:03.478Z,63.64
2023-05-16T07:29:37.546Z,63.11
2023-05-16T07:32:08.652Z,63.27
2023-05-16T07:34:38.596Z,62.70
2023-05-16T07:37:13.077Z,64.41
2023-05-16T07:39:43.175Z,63.54
2023-05-16T07:42:13.376Z,62.81
2023-05-16T07:44:45.980Z,61.76
2023-05-16T07:47:15.917Z,61.94
2023-05-16T07:49:45.705Z,61.66
2023-05-16T07:52:15.541Z,62.03
2023-05-16T07:54:45.463Z,60.29
2023-05-16T07:57:17.455Z,61.35
2023-05-16T07:59:49.937Z,59.46
2023-05-16T08:02:19.936Z,58.63
2023-05-16T08:04:50.458Z,59.25
2023-05-16T08:07:20.321Z,59.87
2023-05-16T08:09:50.112Z,59.48
2023-05-16T08:12:19.999Z,57.96
2023-05-16T08:14:52.384Z,58.97
2023-05-16T08:17:22.227Z,57.71
2023-05-16T08:19:52.041Z,56.25
2023-05-16T08:22:21.892Z,55.79
2023-05-16T08:24:51.785Z,54.71
2023-05-16T08:27:21.602Z,55.64
2023-05-16T08:29:53.998Z,55.29
2023-05-16T08:32:25.042Z,54.43
2023-05-16T08:34:55.016Z,54.11
2023-05-16T08:37:24.802Z,54.46
2023-05-16T08:39:54.619Z,55.14
2023-05-16T08:42:24.623Z,55.34
2023-05-16T08:44:57.081Z,54.46
2023-05-16T08:47:29.838Z,54.48
2023-05-16T08:50:01.352Z,53.27
2023-05-16T08:52:31.929Z,54.15
2023-05-16T08:55:10.848Z,51.40
2023-05-16T08:57:42.131Z,51.43
2023-05-16T09:00:17.093Z,53.24
2023-05-16T09:02:47.325Z,52.73
2023-05-16T09:05:18.663Z,52.16
2023-05-16T09:07:49.000Z,52.53
2023-05-16T09:10:19.517Z,51.92
2023-05-16T09:12:49.340Z,51.98
2023-05-16T09:15:23.194Z,52.63
2023-05-16T09:17:53.211Z,51.92
2023-05-16T09:20:23.744Z,52.04
2023-05-16T09:22:55.518Z,52.25
2023-05-16T09:25:31.452Z,51.46
2023-05-16T09:28:03.984Z,49.23
2023-05-16T09:30:39.614Z,51.47
2023-05-16T09:33:09.942Z,51.54
2023-05-16T09:35:45.546Z,51.34
2023-05-16T09:38:19.955Z,52.02
2023-05-16T09:40:49.887Z,51.93
2023-05-16T09:43:20.344Z,50.88
2023-05-16T09:45:52.951Z,51.81
2023-05-16T09:48:25.613Z,51.26
2023-05-16T09:51:03.577Z,51.14
2023-05-16T09:53:35.241Z,50.44
2023-05-16T09:56:07.820Z,50.74
2023-05-16T09:58:39.045Z,49.96
2023-05-16T10:01:12.334Z,50.77
2023-05-16T10:03:44.012Z,49.35
2023-05-16T10:06:16.788Z,49.73
2023-05-16T10:08:46.859Z,49.79
2023-05-16T10:11:16.911Z,48.80
2023-05-16T10:13:53.310Z,48.19
2023-05-16T10:16:26.936Z,47.18
2023-05-16T10:18:57.976Z,48.53
2023-05-16T10:21:31.590Z,49.45
2023-05-16T10:24:06.483Z,51.79
2023-05-16T10:26:36.875Z,52.69
2023-05-16T10:29:07.937Z,52.68
2023-05-16T10:31:41.458Z,51.32
2023-05-16T10:34:11.762Z,52.08
2023-05-16T10:36:42.200Z,52.87
2023-05-16T10:39:13.336Z,52.65
2023-05-16T10:41:43.626Z,51.68
2023-05-16T10:44:18.629Z,50.71
2023-05-16T10:46:52.674Z,51.97
2023-05-16T10:49:23.777Z,52.46
2023-05-16T10:52:10.583Z,53.00
2023-05-16T10:54:42.245Z,53.03
2023-05-16T10:57:15.432Z,52.79
2023-05-16T10:59:47.332Z,52.05
2023-05-16T11:02:33.121Z,50.36
2023-05-16T11:05:04.315Z,50.72
2023-05-16T11:07:36.766Z,51.02
2023-05-16T11:10:14.052Z,50.99
2023-05-16T11:12:48.530Z,50.34
2023-05-16T11:15:27.440Z,49.81
2023-05-16T11:18:17.900Z,47.94
2023-05-16T11:20:47.719Z,48.45
2023-05-16T11:23:25.632Z,48.96
2023-05-16T11:25:58.635Z,49.18
2023-05-16T11:28:30.501Z,49.43
2023-05-16T11:31:05.426Z,49.43
2023-05-16T11:33:38.199Z,47.44
2023-05-16T11:38:44.177Z,50.58
2023-05-16T11:41:15.735Z,50.28
2023-05-16T11:43:46.859Z,51.27
2023-05-16T11:46:17.723Z,51.80
2023-05-16T11:48:50.225Z,51.57
2023-05-16T11:51:21.660Z,50.84
2023-05-16T11:53:52.630Z,48.40
2023-05-16T11:56:23.778Z,48.86
2023-05-16T11:58:54.234Z,49.03
2023-05-16T12:01:24.037Z,48.25
2023-05-16T12:04:00.514Z,48.01
2023-05-16T12:06:31.601Z,48.19
2023-05-16T12:09:03.197Z,47.15
2023-05-16T12:11:33.285Z,47.91
2023-05-16T12:14:03.284Z,46.82
2023-05-16T12:16:33.448Z,47.25
2023-05-16T12:19:07.038Z,48.55
2023-05-16T12:21:37.531Z,49.01
2023-05-16T12:24:08.052Z,49.49
2023-05-16T12:26:37.853Z,52.19
2023-05-16T12:29:07.934Z,54.48
2023-05-16T12:31:40.678Z,52.59
2023-05-16T12:34:23.541Z,53.82
2023-05-16T12:36:56.867Z,53.53
2023-05-16T12:39:26.987Z,52.57
2023-05-16T12:41:56.882Z,51.82
2023-05-16T12:44:27.236Z,53.20
2023-05-16T12:46:58.442Z,51.79
2023-05-16T12:49:30.830Z,50.84
2023-05-16T12:52:05.900Z,50.45
2023-05-16T12:54:35.742Z,46.66
2023-05-16T12:57:07.310Z,44.71
2023-05-16T12:59:37.216Z,43.52
2023-05-16T13:02:07.698Z,44.22
2023-05-16T13:04:40.086Z,45.91
2023-05-16T13:07:09.847Z,45.68
2023-05-16T13:09:39.618Z,45.17
2023-05-16T13:12:09.618Z,46.71
2023-05-16T13:14:40.443Z,48.38
2023-05-16T13:17:12.053Z,46.98
2023-05-16T13:19:45.140Z,47.23
2023-05-16T13:22:16.104Z,46.49
2023-05-16T13:24:45.974Z,46.16
2023-05-16T13:27:19.551Z,46.03
2023-05-16T13:29:49.345Z,46.69
2023-05-16T13:32:19.185Z,47.19
2023-05-16T13:34:51.546Z,47.02
2023-05-16T13:37:21.560Z,45.42
2023-05-16T13:39:51.301Z,45.66
2023-05-16T13:42:21.354Z,46.15
2023-05-16T13:44:51.391Z,44.86
2023-05-16T13:47:26.594Z,44.05
2023-05-16T13:49:59.358Z,45.17
2023-05-16T13:52:29.145Z,46.48
2023-05-16T13:54:58.888Z,48.31
2023-05-16T13:57:28.742Z,49.78
2023-05-16T14:00:24.707Z,50.43
2023-05-16T14:02:48.615Z,51.27
2023-05-16T14:05:21.215Z,50.98
2023-05-16T14:07:51.165Z,49.57
2023-05-16T14:10:21.021Z,50.17
2023-05-16T14:12:52.074Z,50.85
2023-05-16T14:15:21.933Z,50.16
2023-05-16T14:17:51.762Z,50.96
2023-05-16T14:20:24.347Z,52.38
2023-05-16T14:22:54.088Z,52.96
2023-05-16T14:25:23.873Z,53.77
2023-05-16T14:27:53.769Z,53.57
2023-05-16T14:30:23.899Z,52.99
2023-05-16T14:32:53.759Z,53.16
2023-05-16T14:35:26.305Z,53.91
2023-05-16T14:37:56.212Z,53.86
2023-05-16T14:40:26.146Z,53.73
2023-05-16T14:42:56.060Z,53.00
2023-05-16T14:45:26.088Z,52.13
2023-05-16T14:47:56.052Z,50.22
2023-05-16T14:50:28.527Z,49.84
2023-05-16T14:52:58.351Z,50.14
2023-05-16T14:55:28.463Z,49.97
2023-05-16T14:58:00.771Z,50.17
2023-05-16T15:00:32.141Z,49.86
2023-05-16T15:03:02.459Z,48.95
2023-05-16T15:05:34.888Z,46.79
2023-05-16T15:08:04.777Z,47.43
2023-05-16T15:10:34.558Z,47.09
2023-05-16T15:13:04.523Z,47.61
2023-05-16T15:15:34.737Z,47.13
2023-05-16T15:18:04.546Z,47.44
2023-05-16T15:20:37.135Z,48.15
2023-05-16T15:23:06.966Z,49.20
2023-05-16T15:25:36.779Z,49.38
2023-05-16T15:28:06.794Z,49.64
2023-05-16T15:30:36.612Z,49.16
2023-05-16T15:33:06.485Z,49.50
2023-05-16T15:35:38.913Z,50.38
2023-05-16T15:38:08.833Z,50.28
2023-05-16T15:40:38.608Z,50.48
2023-05-16T15:43:08.413Z,51.69
2023-05-16T15:45:40.057Z,51.04
2023-05-16T15:48:10.293Z,50.63
2023-05-16T15:50:43.568Z,51.39
2023-05-16T15:53:13.360Z,50.57
2023-05-16T15:55:43.262Z,50.93
2023-05-16T15:58:13.072Z,50.34
2023-05-16T16:00:43.703Z,51.13
2023-05-16T16:03:13.565Z,50.83
2023-05-16T16:05:46.106Z,51.35
2023-05-16T16:08:15.886Z,51.79
2023-05-16T16:10:46.206Z,51.24
2023-05-16T16:13:15.984Z,51.78
2023-05-16T16:15:45.798Z,52.30
2023-05-16T16:18:15.723Z,50.80
2023-05-16T16:20:48.124Z,51.04
2023-05-16T16:23:17.969Z,50.70
2023-05-16T16:25:47.828Z,50.98
2023-05-16T16:28:17.698Z,51.32
2023-05-16T16:30:50.427Z,51.21
2023-05-16T16:33:20.293Z,50.53
2023-05-16T16:35:54.766Z,49.41
2023-05-16T16:38:24.650Z,50.55
2023-05-16T16:40:54.424Z,50.14
2023-05-16T16:43:24.274Z,51.01
2023-05-16T16:45:54.095Z,50.46
2023-05-16T16:48:23.916Z,50.77
2023-05-16T16:50:56.896Z,51.24
2023-05-16T16:53:26.722Z,51.08
2023-05-16T16:55:56.494Z,50.99
2023-05-16T16:58:26.585Z,50.55
2023-05-16T17:00:56.460Z,49.61
2023-05-16T17:03:26.480Z,50.44
2023-05-16T17:05:59.038Z,50.28
2023-05-16T17:08:28.949Z,49.42
2023-05-16T17:10:59.958Z,49.15
2023-05-16T17:13:33.828Z,48.78
2023-05-16T17:16:04.329Z,49.94
2023-05-16T17:18:34.927Z,49.93
2023-05-16T17:21:09.466Z,49.84
2023-05-16T17:23:40.686Z,50.52
2023-05-16T17:26:13.593Z,50.57
2023-05-16T17:28:43.545Z,50.89
2023-05-16T17:31:13.356Z,51.56
2023-05-16T17:33:43.216Z,52.04
2023-05-16T17:36:15.622Z,52.37
2023-05-16T17:38:45.460Z,53.00
2023-05-16T17:41:15.299Z,52.32
2023-05-16T17:43:45.663Z,52.86
2023-05-16T17:46:15.618Z,52.59
2023-05-16T17:48:45.364Z,52.92
2023-05-16T17:51:17.783Z,54.56
2023-05-16T17:53:47.554Z,52.85
2023-05-16T17:56:17.370Z,53.63
2023-05-16T17:58:47.597Z,54.12
2023-05-16T18:01:17.481Z,54.46
2023-05-16T18:03:47.489Z,54.43
2023-05-16T18:06:19.942Z,55.02
2023-05-16T18:08:49.809Z,55.49
2023-05-16T18:11:19.905Z,56.00
2023-05-16T18:13:49.650Z,56.25
2023-05-16T18:16:19.465Z,56.79
2023-05-16T18:18:49.355Z,57.28
2023-05-16T18:21:21.801Z,57.54
2023-05-16T18:23:51.938Z,57.71
2023-05-16T18:26:22.205Z,57.50
2023-05-16T18:28:52.112Z,57.66
2023-05-16T18:31:22.370Z,58.32
2023-05-16T18:33:52.637Z,58.89
2023-05-16T18:36:25.026Z,59.01
2023-05-16T18:38:54.884Z,59.34
2023-05-16T18:41:25.094Z,59.83
2023-05-16T18:43:54.873Z,61.69
2023-05-16T18:46:24.702Z,67.04
2023-05-16T18:48:57.851Z,70.56
2023-05-16T18:51:30.339Z,72.71
2023-05-16T18:54:00.090Z,72.63
2023-05-16T18:56:30.065Z,74.11
2023-05-16T18:58:59.997Z,73.84
2023-05-16T19:01:30.000Z,73.90
2023-05-16T19:03:59.881Z,73.03
2023-05-16T19:06:32.490Z,73.79
2023-05-16T19:09:02.304Z,74.19
2023-05-16T19:11:32.096Z,74.85
2023-05-16T19:14:01.926Z,73.77
2023-05-16T19:16:31.750Z,73.49
2023-05-16T19:19:01.786Z,73.38
2023-05-16T19:21:34.416Z,73.19
2023-05-16T19:24:04.226Z,73.25
2023-05-16T19:26:34.000Z,73.41
2023-05-16T19:29:04.132Z,72.82
2023-05-16T19:31:34.034Z,72.40
2023-05-16T19:34:03.867Z,73.30
2023-05-16T19:36:36.693Z,73.53
2023-05-16T19:39:06.647Z,73.34
2023-05-16T19:41:36.833Z,73.13
2023-05-16T19:44:06.880Z,73.57
2023-05-16T19:46:36.703Z,73.06
2023-05-16T19:49:06.653Z,72.91
2023-05-16T19:51:41.981Z,72.59
2023-05-16T19:54:12.189Z,72.81
2023-05-16T19:56:42.004Z,72.96
2023-05-16T19:59:11.837Z,73.10
2023-05-16T20:04:11.875Z,72.72
2023-05-16T20:06:44.340Z,73.35
2023-05-16T20:09:14.815Z,73.63
2023-05-16T20:11:44.671Z,74.09
2023-05-16T20:14:14.504Z,73.29
2023-05-16T20:16:44.306Z,73.50
2023-05-16T20:19:15.526Z,73.06
2023-05-16T20:21:48.057Z,72.80
2023-05-16T20:24:17.913Z,73.45
2023-05-16T20:26:47.737Z,72.86
2023-05-16T20:29:17.560Z,72.72
2023-05-16T20:31:47.377Z,72.73
2023-05-16T20:34:17.150Z,72.46
2023-05-16T20:36:49.509Z,73.34
2023-05-16T20:39:19.306Z,72.55
2023-05-16T20:41:49.111Z,72.67
2023-05-16T20:44:18.957Z,73.33
2023-05-16T20:46:48.787Z,73.21
2023-05-16T20:49:18.577Z,73.64
2023-05-16T20:51:50.924Z,73.02
2023-05-16T20:54:20.755Z,73.35
2023-05-16T20:56:50.612Z,73.64
2023-05-16T20:59:20.480Z,74.15
2023-05-16T21:01:50.436Z,75.21
2023-05-16T21:04:20.668Z,75.76
2023-05-16T21:06:53.128Z,76.04
2023-05-16T21:09:23.257Z,76.33
2023-05-16T21:11:53.095Z,76.69
2023-05-16T21:14:22.920Z,76.43
2023-05-16T21:16:52.936Z,75.76
2023-05-16T21:19:22.889Z,75.70
2023-05-16T21:21:55.456Z,75.55
2023-05-16T21:24:25.245Z,76.09
2023-05-16T21:26:55.061Z,75.65
2023-05-16T21:29:24.906Z,75.47
2023-05-16T21:31:54.797Z,75.25
2023-05-16T21:34:24.733Z,75.08
2023-05-16T21:36:58.119Z,74.98
2023-05-16T21:39:28.115Z,74.94
2023-05-16T21:41:57.957Z,74.64
2023-05-16T21:44:27.904Z,75.21
2023-05-16T21:46:57.726Z,74.29
2023-05-16T21:49:27.637Z,74.47
2023-05-16T21:52:00.022Z,75.05
2023-05-16T21:54:29.845Z,75.39
2023-05-16T21:56:59.684Z,75.54
2023-05-16T21:59:29.453Z,75.76
2023-05-16T22:01:59.261Z,75.60
2023-05-16T22:04:29.076Z,75.40
2023-05-16T22:07:01.440Z,75.41
2023-05-16T22:09:31.219Z,75.29
2023-05-16T22:12:01.131Z,75.50
2023-05-16T22:14:30.910Z,75.10
2023-05-16T22:17:00.705Z,75.80
2023-05-16T22:19:31.040Z,75.72
2023-05-16T22:22:03.505Z,76.01
2023-05-16T22:24:33.288Z,75.71
2023-05-16T22:27:03.145Z,75.71
2023-05-16T22:29:38.316Z,75.95
2023-05-16T22:32:10.216Z,75.55
2023-05-16T22:34:41.378Z,75.54
2023-05-16T22:37:13.902Z,75.60
2023-05-16T22:39:43.816Z,74.88
2023-05-16T22:42:13.593Z,74.77
2023-05-16T22:44:43.372Z,74.80
2023-05-16T22:47:13.164Z,74.61
2023-05-16T22:49:42.928Z,75.04
2023-05-16T22:52:15.343Z,75.14
2023-05-16T22:54:45.107Z,75.63
2023-05-16T22:57:15.181Z,74.97
2023-05-16T22:59:44.966Z,75.85
2023-05-16T23:02:14.767Z,75.40
2023-05-16T23:04:44.553Z,75.44
2023-05-16T23:07:16.904Z,75.29
2023-05-16T23:09:46.753Z,75.31
2023-05-16T23:12:16.599Z,75.43
2023-05-16T23:14:46.392Z,74.99
2023-05-16T23:17:16.333Z,75.99
2023-05-16T23:19:46.186Z,75.62
2023-05-16T23:22:18.601Z,75.07
2023-05-16T23:24:48.429Z,75.50
2023-05-16T23:27:18.194Z,75.23
2023-05-16T23:29:47.991Z,75.32
2023-05-16T23:32:17.792Z,75.65
2023-05-16T23:34:47.571Z,75.67
2023-05-16T23:37:19.958Z,75.69
2023-05-16T23:39:49.771Z,76.20
2023-05-16T23:42:19.589Z,76.08
2023-05-16T23:44:49.393Z,76.15
2023-05-16T23:47:19.159Z,76.40
2023-05-16T23:49:48.946Z,76.52
2023-05-16T23:52:21.329Z,76.18
2023-05-16T23:54:51.132Z,77.05
2023-05-16T23:57:20.890Z,77.05
2023-05-16T23:59:50.735Z,76.43
